Airfield :
LOGIN :

Register | Disclaimer

   EN    FR    IT 

 










Legend :    VFR   Marginal VFR   IFR   Intensive IFR   Very Intensive IFR
Visi :
Ceiling :
>= 8 km
>= 3000ft
5 to 8 km
1000 to 3000 ft
1500m to 5 km
500 to 1000 ft
800 to 1500m
200 to 500 ft
< 800m
< 200 ft
Symbols :   Thunderstorms  Fog  Heavy snow  Heavy precipitations  Wind > 20 kt
SIGMETs :     Misc.  Thunderstorms  Icing  Turbulence  Mountain Waves  Volcanic Ashes







- Airport Elevation : 306 ft
- IATA code : EMA
- Download approach charts


EGNX - Nottingham East Midlands

CURRENT METAR :
  • 211450Z 11012KT CAVOK 23/07 Q1010

EXPIRED METARs :
  • 211420Z 11013KT CAVOK 23/07 Q1010
  • 211350Z 12014KT CAVOK 23/08 Q1010
  • 211320Z 12013KT CAVOK 22/08 Q1011
  • 211250Z 11013KT CAVOK 22/09 Q1011
  • 211220Z 11014KT CAVOK 21/10 Q1012
  • 211150Z 10012KT CAVOK 20/09 Q1012

TAF TAF EGNX
Valid from the 21 at 12:00 until the 22 at 12:00 UTC


211100Z 2112/2212 12012KT CAVOK
PROB40
TEMPO 2203/2207 6000 SHRA BKN045CB
BECMG 2209/2212 BKN025
TEMPO 2210/2212 7000 RA
PROB40
TEMPO 2211/2212 3000 +SHRA BKN010 BKN040CB
ATIS : +44 1332 852 852 (ext 3201)
No reported NOTAMs for that airfield.



MET'MAP, your aeronautical weather chart ! - Copyright ORBIFLY December 2007 - Disclaimer

ORBIFLY MET'MAP TEAM :

Programming & Development : Alexandra Zaïnal
Concept & Development : Baudouin d'Aumeries
Co-Development & Prog : Marc-Olivier Méhu
Technical & hardware support : Manuel Goepfert

Contact : metmap@orbifly.com




SOURCES & CREDITS :

   NOAA